sensor_id;sensor_type;location;lat;lon;timestamp;P1;durP1;ratioP1;P2;durP2;ratioP2
18501;SDS011;68437;52.236;5.710;2023-07-02T00:02:25;9.20;;;5.38;;
18501;SDS011;68437;52.236;5.710;2023-07-02T00:04:54;10.07;;;5.13;;
18501;SDS011;68437;52.236;5.710;2023-07-02T00:07:21;10.48;;;5.28;;
18501;SDS011;68437;52.236;5.710;2023-07-02T00:09:49;12.65;;;5.88;;
18501;SDS011;68437;52.236;5.710;2023-07-02T00:12:16;10.57;;;6.03;;
18501;SDS011;68437;52.236;5.710;2023-07-02T00:14:44;10.80;;;6.32;;
18501;SDS011;68437;52.236;5.710;2023-07-02T00:17:11;10.73;;;6.43;;
18501;SDS011;68437;52.236;5.710;2023-07-02T00:19:38;11.43;;;6.30;;
18501;SDS011;68437;52.236;5.710;2023-07-02T00:22:06;11.45;;;6.65;;
18501;SDS011;68437;52.236;5.710;2023-07-02T00:24:33;13.50;;;6.90;;
18501;SDS011;68437;52.236;5.710;2023-07-02T00:27:02;11.95;;;7.00;;
18501;SDS011;68437;52.236;5.710;2023-07-02T00:29:32;13.45;;;6.35;;
18501;SDS011;68437;52.236;5.710;2023-07-02T00:32:00;13.75;;;6.55;;
18501;SDS011;68437;52.236;5.710;2023-07-02T00:34:28;13.73;;;6.85;;
18501;SDS011;68437;52.236;5.710;2023-07-02T00:36:55;11.48;;;6.65;;
18501;SDS011;68437;52.236;5.710;2023-07-02T00:39:22;13.93;;;6.78;;
18501;SDS011;68437;52.236;5.710;2023-07-02T00:41:49;10.73;;;6.43;;
18501;SDS011;68437;52.236;5.710;2023-07-02T00:44:18;13.27;;;6.72;;
18501;SDS011;68437;52.236;5.710;2023-07-02T00:46:45;14.65;;;7.05;;
18501;SDS011;68437;52.236;5.710;2023-07-02T00:49:13;14.93;;;6.07;;
18501;SDS011;68437;52.236;5.710;2023-07-02T00:51:41;17.25;;;6.80;;
18501;SDS011;68437;52.236;5.710;2023-07-02T00:54:08;15.90;;;5.75;;
18501;SDS011;68437;52.236;5.710;2023-07-02T00:56:35;13.35;;;6.07;;
18501;SDS011;68437;52.236;5.710;2023-07-02T00:59:02;17.20;;;6.43;;
18501;SDS011;68437;52.236;5.710;2023-07-02T01:01:31;15.90;;;6.72;;
18501;SDS011;68437;52.236;5.710;2023-07-02T01:04:04;11.38;;;6.07;;
18501;SDS011;68437;52.236;5.710;2023-07-02T01:06:34;12.45;;;6.03;;
18501;SDS011;68437;52.236;5.710;2023-07-02T01:09:05;13.98;;;6.10;;
18501;SDS011;68437;52.236;5.710;2023-07-02T01:11:34;12.65;;;5.72;;
18501;SDS011;68437;52.236;5.710;2023-07-02T01:14:04;15.30;;;6.22;;
18501;SDS011;68437;52.236;5.710;2023-07-02T01:16:34;15.40;;;6.40;;
18501;SDS011;68437;52.236;5.710;2023-07-02T01:19:04;14.70;;;6.50;;
18501;SDS011;68437;52.236;5.710;2023-07-02T01:21:40;19.30;;;6.72;;
18501;SDS011;68437;52.236;5.710;2023-07-02T01:24:09;23.00;;;7.00;;
18501;SDS011;68437;52.236;5.710;2023-07-02T01:26:38;18.55;;;6.97;;
18501;SDS011;68437;52.236;5.710;2023-07-02T01:29:15;18.55;;;6.95;;
18501;SDS011;68437;52.236;5.710;2023-07-02T01:31:42;20.33;;;6.70;;
18501;SDS011;68437;52.236;5.710;2023-07-02T01:34:10;20.38;;;7.18;;
18501;SDS011;68437;52.236;5.710;2023-07-02T01:36:38;18.60;;;7.20;;
18501;SDS011;68437;52.236;5.710;2023-07-02T01:39:06;17.95;;;7.05;;
18501;SDS011;68437;52.236;5.710;2023-07-02T01:41:36;23.25;;;7.40;;
18501;SDS011;68437;52.236;5.710;2023-07-02T01:44:08;24.50;;;7.45;;
18501;SDS011;68437;52.236;5.710;2023-07-02T01:46:36;24.60;;;7.18;;
18501;SDS011;68437;52.236;5.710;2023-07-02T01:49:02;21.23;;;7.30;;
18501;SDS011;68437;52.236;5.710;2023-07-02T01:51:29;25.90;;;7.93;;
18501;SDS011;68437;52.236;5.710;2023-07-02T01:54:00;23.15;;;7.50;;
18501;SDS011;68437;52.236;5.710;2023-07-02T01:56:29;26.70;;;8.02;;
18501;SDS011;68437;52.236;5.710;2023-07-02T01:58:56;20.55;;;7.60;;
18501;SDS011;68437;52.236;5.710;2023-07-02T02:01:24;21.08;;;7.10;;
18501;SDS011;68437;52.236;5.710;2023-07-02T02:03:51;19.88;;;7.28;;
18501;SDS011;68437;52.236;5.710;2023-07-02T02:06:24;21.75;;;8.05;;
18501;SDS011;68437;52.236;5.710;2023-07-02T02:08:50;23.30;;;7.47;;
18501;SDS011;68437;52.236;5.710;2023-07-02T02:11:19;21.58;;;7.68;;
18501;SDS011;68437;52.236;5.710;2023-07-02T02:13:45;21.33;;;7.85;;
18501;SDS011;68437;52.236;5.710;2023-07-02T02:16:13;28.02;;;7.70;;
18501;SDS011;68437;52.236;5.710;2023-07-02T02:18:41;28.63;;;7.72;;
18501;SDS011;68437;52.236;5.710;2023-07-02T02:21:07;19.00;;;7.78;;
18501;SDS011;68437;52.236;5.710;2023-07-02T02:23:34;21.65;;;7.82;;
18501;SDS011;68437;52.236;5.710;2023-07-02T02:26:01;20.55;;;7.97;;
18501;SDS011;68437;52.236;5.710;2023-07-02T02:28:31;21.95;;;8.00;;
18501;SDS011;68437;52.236;5.710;2023-07-02T02:30:58;18.60;;;7.72;;
18501;SDS011;68437;52.236;5.710;2023-07-02T02:33:24;23.45;;;7.78;;
18501;SDS011;68437;52.236;5.710;2023-07-02T02:35:51;23.73;;;7.82;;
18501;SDS011;68437;52.236;5.710;2023-07-02T02:38:18;24.95;;;7.97;;
18501;SDS011;68437;52.236;5.710;2023-07-02T02:40:45;20.48;;;7.95;;
18501;SDS011;68437;52.236;5.710;2023-07-02T02:43:12;22.70;;;8.23;;
18501;SDS011;68437;52.236;5.710;2023-07-02T02:45:43;21.88;;;8.02;;
18501;SDS011;68437;52.236;5.710;2023-07-02T02:48:10;23.65;;;7.93;;
18501;SDS011;68437;52.236;5.710;2023-07-02T02:50:37;24.63;;;8.43;;
18501;SDS011;68437;52.236;5.710;2023-07-02T02:53:06;21.70;;;7.97;;
18501;SDS011;68437;52.236;5.710;2023-07-02T02:55:33;25.63;;;8.63;;
18501;SDS011;68437;52.236;5.710;2023-07-02T02:58:00;25.88;;;8.18;;
18501;SDS011;68437;52.236;5.710;2023-07-02T03:00:27;28.38;;;8.57;;
18501;SDS011;68437;52.236;5.710;2023-07-02T03:02:55;24.75;;;8.45;;
18501;SDS011;68437;52.236;5.710;2023-07-02T03:05:22;21.65;;;7.80;;
18501;SDS011;68437;52.236;5.710;2023-07-02T03:07:49;27.73;;;8.52;;
18501;SDS011;68437;52.236;5.710;2023-07-02T03:10:17;25.38;;;7.97;;
18501;SDS011;68437;52.236;5.710;2023-07-02T03:12:44;26.05;;;8.50;;
18501;SDS011;68437;52.236;5.710;2023-07-02T03:15:11;28.88;;;8.98;;
18501;SDS011;68437;52.236;5.710;2023-07-02T03:17:38;30.10;;;8.82;;
18501;SDS011;68437;52.236;5.710;2023-07-02T03:20:07;30.30;;;8.80;;
18501;SDS011;68437;52.236;5.710;2023-07-02T03:22:34;29.08;;;9.18;;
18501;SDS011;68437;52.236;5.710;2023-07-02T03:25:01;27.25;;;8.55;;
18501;SDS011;68437;52.236;5.710;2023-07-02T03:27:28;26.10;;;9.10;;
18501;SDS011;68437;52.236;5.710;2023-07-02T03:29:55;23.65;;;8.50;;
18501;SDS011;68437;52.236;5.710;2023-07-02T03:32:23;26.80;;;8.77;;
18501;SDS011;68437;52.236;5.710;2023-07-02T03:34:50;26.15;;;9.15;;
18501;SDS011;68437;52.236;5.710;2023-07-02T03:37:18;26.48;;;8.60;;
18501;SDS011;68437;52.236;5.710;2023-07-02T03:39:45;24.52;;;8.43;;
18501;SDS011;68437;52.236;5.710;2023-07-02T03:42:12;24.48;;;8.98;;
18501;SDS011;68437;52.236;5.710;2023-07-02T03:44:39;22.67;;;8.70;;
18501;SDS011;68437;52.236;5.710;2023-07-02T03:47:06;30.10;;;9.23;;
18501;SDS011;68437;52.236;5.710;2023-07-02T03:49:33;23.30;;;8.20;;
18501;SDS011;68437;52.236;5.710;2023-07-02T03:52:00;24.73;;;8.70;;
18501;SDS011;68437;52.236;5.710;2023-07-02T03:54:28;27.00;;;8.95;;
18501;SDS011;68437;52.236;5.710;2023-07-02T03:56:55;28.05;;;8.52;;
18501;SDS011;68437;52.236;5.710;2023-07-02T03:59:22;30.55;;;9.23;;
18501;SDS011;68437;52.236;5.710;2023-07-02T04:01:49;29.85;;;9.75;;
18501;SDS011;68437;52.236;5.710;2023-07-02T04:04:16;28.02;;;8.85;;
18501;SDS011;68437;52.236;5.710;2023-07-02T04:06:43;23.80;;;8.85;;
18501;SDS011;68437;52.236;5.710;2023-07-02T04:09:13;27.50;;;9.02;;
18501;SDS011;68437;52.236;5.710;2023-07-02T04:11:41;28.38;;;9.15;;
18501;SDS011;68437;52.236;5.710;2023-07-02T04:14:08;28.45;;;8.85;;
18501;SDS011;68437;52.236;5.710;2023-07-02T04:16:34;22.42;;;9.18;;
18501;SDS011;68437;52.236;5.710;2023-07-02T04:19:01;27.05;;;9.38;;
18501;SDS011;68437;52.236;5.710;2023-07-02T04:21:28;24.90;;;8.88;;
18501;SDS011;68437;52.236;5.710;2023-07-02T04:23:57;29.00;;;8.82;;
18501;SDS011;68437;52.236;5.710;2023-07-02T04:26:24;29.15;;;9.00;;
18501;SDS011;68437;52.236;5.710;2023-07-02T04:28:53;29.05;;;8.68;;
18501;SDS011;68437;52.236;5.710;2023-07-02T04:31:20;33.45;;;9.35;;
18501;SDS011;68437;52.236;5.710;2023-07-02T04:33:47;32.35;;;9.02;;
18501;SDS011;68437;52.236;5.710;2023-07-02T04:36:14;37.95;;;8.93;;
18501;SDS011;68437;52.236;5.710;2023-07-02T04:38:41;23.83;;;8.20;;
18501;SDS011;68437;52.236;5.710;2023-07-02T04:41:08;25.65;;;8.43;;
18501;SDS011;68437;52.236;5.710;2023-07-02T04:43:35;33.17;;;8.43;;
18501;SDS011;68437;52.236;5.710;2023-07-02T04:46:03;26.52;;;8.40;;
18501;SDS011;68437;52.236;5.710;2023-07-02T04:48:32;35.28;;;9.20;;
18501;SDS011;68437;52.236;5.710;2023-07-02T04:51:01;25.60;;;8.27;;
18501;SDS011;68437;52.236;5.710;2023-07-02T04:53:28;29.55;;;8.77;;
18501;SDS011;68437;52.236;5.710;2023-07-02T04:55:55;29.25;;;9.20;;
18501;SDS011;68437;52.236;5.710;2023-07-02T04:58:23;28.88;;;9.10;;
18501;SDS011;68437;52.236;5.710;2023-07-02T05:00:50;33.40;;;9.18;;
18501;SDS011;68437;52.236;5.710;2023-07-02T05:03:18;26.55;;;8.85;;
18501;SDS011;68437;52.236;5.710;2023-07-02T05:05:45;29.70;;;8.75;;
18501;SDS011;68437;52.236;5.710;2023-07-02T05:08:14;36.10;;;8.70;;
18501;SDS011;68437;52.236;5.710;2023-07-02T05:10:41;31.10;;;8.70;;
18501;SDS011;68437;52.236;5.710;2023-07-02T05:13:07;25.40;;;8.20;;
18501;SDS011;68437;52.236;5.710;2023-07-02T05:15:34;23.27;;;8.20;;
18501;SDS011;68437;52.236;5.710;2023-07-02T05:18:01;34.25;;;9.35;;
18501;SDS011;68437;52.236;5.710;2023-07-02T05:20:29;27.10;;;8.80;;
18501;SDS011;68437;52.236;5.710;2023-07-02T05:22:56;25.10;;;8.88;;
18501;SDS011;68437;52.236;5.710;2023-07-02T05:25:23;28.83;;;9.38;;
18501;SDS011;68437;52.236;5.710;2023-07-02T05:27:50;38.42;;;9.70;;
18501;SDS011;68437;52.236;5.710;2023-07-02T05:30:17;27.77;;;8.18;;
18501;SDS011;68437;52.236;5.710;2023-07-02T05:32:44;28.70;;;8.82;;
18501;SDS011;68437;52.236;5.710;2023-07-02T05:35:11;28.35;;;9.30;;
18501;SDS011;68437;52.236;5.710;2023-07-02T05:37:39;26.83;;;8.63;;
18501;SDS011;68437;52.236;5.710;2023-07-02T05:40:06;27.55;;;8.52;;
18501;SDS011;68437;52.236;5.710;2023-07-02T05:42:34;30.25;;;9.57;;
18501;SDS011;68437;52.236;5.710;2023-07-02T05:45:03;28.38;;;8.43;;
18501;SDS011;68437;52.236;5.710;2023-07-02T05:47:30;34.30;;;8.70;;
18501;SDS011;68437;52.236;5.710;2023-07-02T05:49:57;33.85;;;9.40;;
18501;SDS011;68437;52.236;5.710;2023-07-02T05:52:27;31.73;;;8.75;;
18501;SDS011;68437;52.236;5.710;2023-07-02T05:54:55;29.13;;;8.20;;
18501;SDS011;68437;52.236;5.710;2023-07-02T05:57:22;29.45;;;7.82;;
18501;SDS011;68437;52.236;5.710;2023-07-02T05:59:48;28.10;;;8.43;;
18501;SDS011;68437;52.236;5.710;2023-07-02T06:02:15;32.08;;;8.73;;
18501;SDS011;68437;52.236;5.710;2023-07-02T06:04:42;30.15;;;8.73;;
18501;SDS011;68437;52.236;5.710;2023-07-02T06:07:09;27.13;;;7.97;;
18501;SDS011;68437;52.236;5.710;2023-07-02T06:09:36;28.70;;;8.23;;
18501;SDS011;68437;52.236;5.710;2023-07-02T06:12:04;32.63;;;8.57;;
18501;SDS011;68437;52.236;5.710;2023-07-02T06:14:32;27.55;;;8.20;;
18501;SDS011;68437;52.236;5.710;2023-07-02T06:16:58;31.75;;;8.35;;
18501;SDS011;68437;52.236;5.710;2023-07-02T06:19:26;29.50;;;8.82;;
18501;SDS011;68437;52.236;5.710;2023-07-02T06:21:55;32.15;;;8.10;;
18501;SDS011;68437;52.236;5.710;2023-07-02T06:24:22;28.55;;;7.88;;
18501;SDS011;68437;52.236;5.710;2023-07-02T06:26:49;29.23;;;7.72;;
18501;SDS011;68437;52.236;5.710;2023-07-02T06:29:18;26.33;;;8.05;;
18501;SDS011;68437;52.236;5.710;2023-07-02T06:31:45;36.63;;;7.57;;
18501;SDS011;68437;52.236;5.710;2023-07-02T06:34:11;25.60;;;7.55;;
18501;SDS011;68437;52.236;5.710;2023-07-02T06:36:39;23.48;;;7.00;;
18501;SDS011;68437;52.236;5.710;2023-07-02T06:39:08;27.98;;;7.15;;
18501;SDS011;68437;52.236;5.710;2023-07-02T06:41:35;28.08;;;7.32;;
18501;SDS011;68437;52.236;5.710;2023-07-02T06:44:02;28.40;;;7.20;;
18501;SDS011;68437;52.236;5.710;2023-07-02T06:46:31;23.52;;;7.32;;
18501;SDS011;68437;52.236;5.710;2023-07-02T06:48:58;22.73;;;6.65;;
18501;SDS011;68437;52.236;5.710;2023-07-02T06:51:25;20.33;;;6.78;;
18501;SDS011;68437;52.236;5.710;2023-07-02T06:53:52;23.33;;;6.43;;
18501;SDS011;68437;52.236;5.710;2023-07-02T06:56:19;23.90;;;6.90;;
18501;SDS011;68437;52.236;5.710;2023-07-02T06:58:46;26.58;;;6.68;;
18501;SDS011;68437;52.236;5.710;2023-07-02T07:01:13;24.40;;;6.72;;
18501;SDS011;68437;52.236;5.710;2023-07-02T07:03:41;20.85;;;6.78;;
18501;SDS011;68437;52.236;5.710;2023-07-02T07:06:08;26.33;;;7.22;;
18501;SDS011;68437;52.236;5.710;2023-07-02T07:08:36;23.85;;;6.93;;
18501;SDS011;68437;52.236;5.710;2023-07-02T07:11:04;24.10;;;6.50;;
18501;SDS011;68437;52.236;5.710;2023-07-02T07:13:31;27.92;;;6.60;;
18501;SDS011;68437;52.236;5.710;2023-07-02T07:15:58;21.63;;;6.70;;
18501;SDS011;68437;52.236;5.710;2023-07-02T07:18:27;21.35;;;6.53;;
18501;SDS011;68437;52.236;5.710;2023-07-02T07:21:01;18.77;;;6.25;;
18501;SDS011;68437;52.236;5.710;2023-07-02T07:23:30;19.13;;;6.03;;
18501;SDS011;68437;52.236;5.710;2023-07-02T07:25:56;20.50;;;6.15;;
18501;SDS011;68437;52.236;5.710;2023-07-02T07:28:23;18.92;;;5.93;;
18501;SDS011;68437;52.236;5.710;2023-07-02T07:30:50;22.48;;;6.40;;
18501;SDS011;68437;52.236;5.710;2023-07-02T07:33:17;20.77;;;5.93;;
18501;SDS011;68437;52.236;5.710;2023-07-02T07:35:46;22.92;;;6.70;;
18501;SDS011;68437;52.236;5.710;2023-07-02T07:38:15;20.77;;;5.93;;
18501;SDS011;68437;52.236;5.710;2023-07-02T07:40:42;22.25;;;6.18;;
18501;SDS011;68437;52.236;5.710;2023-07-02T07:43:09;22.15;;;6.38;;
18501;SDS011;68437;52.236;5.710;2023-07-02T07:45:36;22.20;;;6.07;;
18501;SDS011;68437;52.236;5.710;2023-07-02T07:48:03;23.08;;;6.25;;
18501;SDS011;68437;52.236;5.710;2023-07-02T07:50:31;17.70;;;5.78;;
18501;SDS011;68437;52.236;5.710;2023-07-02T07:52:58;24.02;;;6.03;;
18501;SDS011;68437;52.236;5.710;2023-07-02T07:55:27;19.33;;;5.70;;
18501;SDS011;68437;52.236;5.710;2023-07-02T07:57:54;18.35;;;5.75;;
18501;SDS011;68437;52.236;5.710;2023-07-02T08:00:21;18.55;;;5.45;;
18501;SDS011;68437;52.236;5.710;2023-07-02T08:02:49;18.38;;;5.63;;
18501;SDS011;68437;52.236;5.710;2023-07-02T08:05:17;17.35;;;5.65;;
18501;SDS011;68437;52.236;5.710;2023-07-02T08:07:44;22.33;;;6.03;;
18501;SDS011;68437;52.236;5.710;2023-07-02T08:10:11;17.05;;;5.93;;
18501;SDS011;68437;52.236;5.710;2023-07-02T08:12:40;21.33;;;6.15;;
18501;SDS011;68437;52.236;5.710;2023-07-02T08:15:07;20.90;;;5.28;;
18501;SDS011;68437;52.236;5.710;2023-07-02T08:17:34;14.45;;;5.38;;
18501;SDS011;68437;52.236;5.710;2023-07-02T08:20:01;14.23;;;5.00;;
18501;SDS011;68437;52.236;5.710;2023-07-02T08:22:29;15.98;;;5.07;;
18501;SDS011;68437;52.236;5.710;2023-07-02T08:24:56;14.13;;;4.70;;
18501;SDS011;68437;52.236;5.710;2023-07-02T08:27:23;12.07;;;4.68;;
18501;SDS011;68437;52.236;5.710;2023-07-02T08:29:52;15.75;;;4.82;;
18501;SDS011;68437;52.236;5.710;2023-07-02T08:32:19;14.23;;;4.97;;
18501;SDS011;68437;52.236;5.710;2023-07-02T08:34:46;18.05;;;5.22;;
18501;SDS011;68437;52.236;5.710;2023-07-02T08:37:12;13.15;;;4.88;;
18501;SDS011;68437;52.236;5.710;2023-07-02T08:39:39;14.77;;;4.65;;
18501;SDS011;68437;52.236;5.710;2023-07-02T08:42:06;14.60;;;5.10;;
18501;SDS011;68437;52.236;5.710;2023-07-02T08:44:34;16.50;;;5.20;;
18501;SDS011;68437;52.236;5.710;2023-07-02T08:47:03;15.38;;;5.22;;
18501;SDS011;68437;52.236;5.710;2023-07-02T08:49:31;14.55;;;4.97;;
18501;SDS011;68437;52.236;5.710;2023-07-02T08:52:00;23.48;;;7.20;;
18501;SDS011;68437;52.236;5.710;2023-07-02T08:54:27;20.67;;;5.90;;
18501;SDS011;68437;52.236;5.710;2023-07-02T08:56:54;16.75;;;6.10;;
18501;SDS011;68437;52.236;5.710;2023-07-02T08:59:21;16.75;;;5.55;;
18501;SDS011;68437;52.236;5.710;2023-07-02T09:01:48;16.00;;;5.65;;
18501;SDS011;68437;52.236;5.710;2023-07-02T09:04:21;17.58;;;6.15;;
18501;SDS011;68437;52.236;5.710;2023-07-02T09:06:49;18.13;;;5.88;;
18501;SDS011;68437;52.236;5.710;2023-07-02T09:09:17;16.98;;;6.20;;
18501;SDS011;68437;52.236;5.710;2023-07-02T09:11:47;15.85;;;5.28;;
18501;SDS011;68437;52.236;5.710;2023-07-02T09:14:24;17.42;;;5.97;;
18501;SDS011;68437;52.236;5.710;2023-07-02T09:17:05;19.17;;;5.60;;
18501;SDS011;68437;52.236;5.710;2023-07-02T09:19:35;17.30;;;5.75;;
18501;SDS011;68437;52.236;5.710;2023-07-02T09:22:03;18.80;;;5.57;;
18501;SDS011;68437;52.236;5.710;2023-07-02T09:24:30;17.88;;;5.50;;
18501;SDS011;68437;52.236;5.710;2023-07-02T09:27:00;15.68;;;5.50;;
18501;SDS011;68437;52.236;5.710;2023-07-02T09:29:31;16.77;;;5.22;;
18501;SDS011;68437;52.236;5.710;2023-07-02T09:31:59;18.27;;;5.57;;
18501;SDS011;68437;52.236;5.710;2023-07-02T09:34:26;19.60;;;5.45;;
18501;SDS011;68437;52.236;5.710;2023-07-02T09:36:56;16.23;;;5.60;;
18501;SDS011;68437;52.236;5.710;2023-07-02T09:39:25;16.17;;;5.63;;
18501;SDS011;68437;52.236;5.710;2023-07-02T09:41:55;20.00;;;5.40;;
18501;SDS011;68437;52.236;5.710;2023-07-02T09:44:23;14.60;;;4.97;;
18501;SDS011;68437;52.236;5.710;2023-07-02T09:46:55;17.90;;;5.22;;
18501;SDS011;68437;52.236;5.710;2023-07-02T09:49:26;15.18;;;5.18;;
18501;SDS011;68437;52.236;5.710;2023-07-02T09:51:58;18.38;;;5.03;;
18501;SDS011;68437;52.236;5.710;2023-07-02T09:54:26;11.85;;;4.60;;
18501;SDS011;68437;52.236;5.710;2023-07-02T09:56:53;14.20;;;4.47;;
18501;SDS011;68437;52.236;5.710;2023-07-02T09:59:26;13.10;;;4.30;;
18501;SDS011;68437;52.236;5.710;2023-07-02T10:01:53;14.35;;;4.22;;
18501;SDS011;68437;52.236;5.710;2023-07-02T10:04:20;11.32;;;4.30;;
18501;SDS011;68437;52.236;5.710;2023-07-02T10:06:49;14.60;;;4.50;;
18501;SDS011;68437;52.236;5.710;2023-07-02T10:09:18;11.57;;;4.35;;
18501;SDS011;68437;52.236;5.710;2023-07-02T10:11:46;13.32;;;4.68;;
18501;SDS011;68437;52.236;5.710;2023-07-02T10:14:13;9.68;;;3.90;;
18501;SDS011;68437;52.236;5.710;2023-07-02T10:16:50;14.15;;;4.28;;
18501;SDS011;68437;52.236;5.710;2023-07-02T10:19:18;19.65;;;4.47;;
18501;SDS011;68437;52.236;5.710;2023-07-02T10:21:45;14.10;;;4.07;;
18501;SDS011;68437;52.236;5.710;2023-07-02T10:24:15;15.15;;;3.80;;
18501;SDS011;68437;52.236;5.710;2023-07-02T10:26:53;10.20;;;3.63;;
18501;SDS011;68437;52.236;5.710;2023-07-02T10:29:22;13.48;;;3.83;;
18501;SDS011;68437;52.236;5.710;2023-07-02T10:31:49;9.25;;;3.35;;
18501;SDS011;68437;52.236;5.710;2023-07-02T10:34:29;7.22;;;3.47;;
18501;SDS011;68437;52.236;5.710;2023-07-02T10:36:57;8.88;;;3.13;;
18501;SDS011;68437;52.236;5.710;2023-07-02T10:39:26;9.30;;;3.17;;
18501;SDS011;68437;52.236;5.710;2023-07-02T10:42:04;10.50;;;3.53;;
18501;SDS011;68437;52.236;5.710;2023-07-02T10:44:31;10.50;;;3.20;;
18501;SDS011;68437;52.236;5.710;2023-07-02T10:47:00;6.13;;;3.15;;
18501;SDS011;68437;52.236;5.710;2023-07-02T10:49:31;8.65;;;3.20;;
18501;SDS011;68437;52.236;5.710;2023-07-02T10:51:59;7.13;;;2.78;;
18501;SDS011;68437;52.236;5.710;2023-07-02T10:54:26;7.25;;;2.80;;
18501;SDS011;68437;52.236;5.710;2023-07-02T10:57:05;10.35;;;3.38;;
18501;SDS011;68437;52.236;5.710;2023-07-02T10:59:33;8.57;;;3.05;;
18501;SDS011;68437;52.236;5.710;2023-07-02T11:01:59;9.35;;;3.25;;
18501;SDS011;68437;52.236;5.710;2023-07-02T11:04:28;10.65;;;3.28;;
18501;SDS011;68437;52.236;5.710;2023-07-02T11:06:55;6.57;;;3.10;;
18501;SDS011;68437;52.236;5.710;2023-07-02T11:09:23;10.75;;;2.83;;
18501;SDS011;68437;52.236;5.710;2023-07-02T11:11:52;10.13;;;3.25;;
18501;SDS011;68437;52.236;5.710;2023-07-02T11:14:28;10.43;;;3.35;;
18501;SDS011;68437;52.236;5.710;2023-07-02T11:16:56;10.05;;;3.40;;
18501;SDS011;68437;52.236;5.710;2023-07-02T11:19:24;9.45;;;3.38;;
18501;SDS011;68437;52.236;5.710;2023-07-02T11:21:51;8.07;;;3.25;;
18501;SDS011;68437;52.236;5.710;2023-07-02T11:24:27;8.32;;;3.10;;
18501;SDS011;68437;52.236;5.710;2023-07-02T11:26:56;10.68;;;3.10;;
18501;SDS011;68437;52.236;5.710;2023-07-02T11:29:24;10.60;;;3.28;;
18501;SDS011;68437;52.236;5.710;2023-07-02T11:31:53;10.18;;;3.28;;
18501;SDS011;68437;52.236;5.710;2023-07-02T11:34:24;10.75;;;3.50;;
18501;SDS011;68437;52.236;5.710;2023-07-02T11:36:51;9.77;;;3.53;;
18501;SDS011;68437;52.236;5.710;2023-07-02T11:39:19;7.35;;;3.38;;
18501;SDS011;68437;52.236;5.710;2023-07-02T11:41:47;8.50;;;3.35;;
18501;SDS011;68437;52.236;5.710;2023-07-02T11:44:15;9.07;;;3.60;;
18501;SDS011;68437;52.236;5.710;2023-07-02T11:46:42;13.27;;;4.05;;
18501;SDS011;68437;52.236;5.710;2023-07-02T11:49:11;10.95;;;3.90;;
18501;SDS011;68437;52.236;5.710;2023-07-02T11:51:40;9.63;;;3.85;;
18501;SDS011;68437;52.236;5.710;2023-07-02T11:54:11;6.93;;;3.53;;
18501;SDS011;68437;52.236;5.710;2023-07-02T11:56:38;11.20;;;3.75;;
18501;SDS011;68437;52.236;5.710;2023-07-02T11:59:07;12.15;;;3.92;;
18501;SDS011;68437;52.236;5.710;2023-07-02T12:01:34;10.75;;;3.92;;
18501;SDS011;68437;52.236;5.710;2023-07-02T12:04:00;11.25;;;3.65;;
18501;SDS011;68437;52.236;5.710;2023-07-02T12:06:29;11.52;;;4.03;;
18501;SDS011;68437;52.236;5.710;2023-07-02T12:08:56;9.23;;;3.85;;
18501;SDS011;68437;52.236;5.710;2023-07-02T12:11:22;10.98;;;4.13;;
18501;SDS011;68437;52.236;5.710;2023-07-02T12:13:50;10.25;;;4.25;;
18501;SDS011;68437;52.236;5.710;2023-07-02T12:16:16;16.70;;;4.65;;
18501;SDS011;68437;52.236;5.710;2023-07-02T12:18:43;10.40;;;4.10;;
18501;SDS011;68437;52.236;5.710;2023-07-02T12:21:10;12.20;;;4.65;;
18501;SDS011;68437;52.236;5.710;2023-07-02T12:23:38;12.85;;;4.60;;
18501;SDS011;68437;52.236;5.710;2023-07-02T12:26:05;10.65;;;4.35;;
18501;SDS011;68437;52.236;5.710;2023-07-02T12:28:32;10.15;;;4.53;;
18501;SDS011;68437;52.236;5.710;2023-07-02T12:31:01;11.60;;;3.92;;
18501;SDS011;68437;52.236;5.710;2023-07-02T12:33:28;8.95;;;4.35;;
18501;SDS011;68437;52.236;5.710;2023-07-02T12:35:55;11.77;;;4.60;;
18501;SDS011;68437;52.236;5.710;2023-07-02T12:38:22;13.07;;;4.10;;
18501;SDS011;68437;52.236;5.710;2023-07-02T12:40:50;11.45;;;4.57;;
18501;SDS011;68437;52.236;5.710;2023-07-02T12:43:17;10.23;;;4.50;;
18501;SDS011;68437;52.236;5.710;2023-07-02T12:45:45;9.95;;;3.88;;
18501;SDS011;68437;52.236;5.710;2023-07-02T12:48:12;8.73;;;3.85;;
18501;SDS011;68437;52.236;5.710;2023-07-02T12:50:39;15.52;;;4.13;;
18501;SDS011;68437;52.236;5.710;2023-07-02T12:53:05;13.68;;;4.00;;
18501;SDS011;68437;52.236;5.710;2023-07-02T12:55:32;11.45;;;4.10;;
18501;SDS011;68437;52.236;5.710;2023-07-02T12:58:01;10.95;;;4.20;;
18501;SDS011;68437;52.236;5.710;2023-07-02T13:00:27;12.32;;;4.32;;
18501;SDS011;68437;52.236;5.710;2023-07-02T13:02:55;10.95;;;4.25;;
18501;SDS011;68437;52.236;5.710;2023-07-02T13:05:21;12.43;;;4.30;;
18501;SDS011;68437;52.236;5.710;2023-07-02T13:07:48;11.75;;;4.00;;
18501;SDS011;68437;52.236;5.710;2023-07-02T13:10:15;10.32;;;4.20;;
18501;SDS011;68437;52.236;5.710;2023-07-02T13:12:42;12.82;;;4.00;;
18501;SDS011;68437;52.236;5.710;2023-07-02T13:15:11;12.02;;;4.22;;
18501;SDS011;68437;52.236;5.710;2023-07-02T13:17:38;12.10;;;4.25;;
18501;SDS011;68437;52.236;5.710;2023-07-02T13:20:06;13.80;;;4.38;;
18501;SDS011;68437;52.236;5.710;2023-07-02T13:22:39;10.32;;;4.00;;
18501;SDS011;68437;52.236;5.710;2023-07-02T13:25:08;11.10;;;4.20;;
18501;SDS011;68437;52.236;5.710;2023-07-02T13:27:35;13.02;;;4.20;;
18501;SDS011;68437;52.236;5.710;2023-07-02T13:30:03;11.80;;;4.45;;
18501;SDS011;68437;52.236;5.710;2023-07-02T13:32:32;9.07;;;4.15;;
18501;SDS011;68437;52.236;5.710;2023-07-02T13:35:02;10.18;;;4.32;;
18501;SDS011;68437;52.236;5.710;2023-07-02T13:37:29;11.68;;;4.22;;
18501;SDS011;68437;52.236;5.710;2023-07-02T13:39:56;11.15;;;4.28;;
18501;SDS011;68437;52.236;5.710;2023-07-02T13:42:23;12.13;;;4.28;;
18501;SDS011;68437;52.236;5.710;2023-07-02T13:44:49;13.30;;;4.55;;
18501;SDS011;68437;52.236;5.710;2023-07-02T13:47:17;10.30;;;3.97;;
18501;SDS011;68437;52.236;5.710;2023-07-02T13:49:45;14.40;;;4.47;;
18501;SDS011;68437;52.236;5.710;2023-07-02T13:52:12;13.13;;;4.20;;
18501;SDS011;68437;52.236;5.710;2023-07-02T13:54:39;11.52;;;4.22;;
18501;SDS011;68437;52.236;5.710;2023-07-02T13:57:06;14.43;;;4.60;;
18501;SDS011;68437;52.236;5.710;2023-07-02T13:59:34;14.38;;;4.53;;
18501;SDS011;68437;52.236;5.710;2023-07-02T14:02:01;10.90;;;4.80;;
18501;SDS011;68437;52.236;5.710;2023-07-02T14:04:29;10.73;;;4.65;;
18501;SDS011;68437;52.236;5.710;2023-07-02T14:06:56;11.38;;;4.60;;
18501;SDS011;68437;52.236;5.710;2023-07-02T14:09:23;11.93;;;4.63;;
18501;SDS011;68437;52.236;5.710;2023-07-02T14:11:50;13.27;;;4.97;;
18501;SDS011;68437;52.236;5.710;2023-07-02T14:14:16;11.82;;;4.80;;
18501;SDS011;68437;52.236;5.710;2023-07-02T14:16:45;12.93;;;4.90;;
18501;SDS011;68437;52.236;5.710;2023-07-02T14:19:12;10.82;;;4.45;;
18501;SDS011;68437;52.236;5.710;2023-07-02T14:21:40;10.93;;;4.78;;
18501;SDS011;68437;52.236;5.710;2023-07-02T14:24:07;12.32;;;4.93;;
18501;SDS011;68437;52.236;5.710;2023-07-02T14:26:36;12.75;;;4.68;;
18501;SDS011;68437;52.236;5.710;2023-07-02T14:29:03;12.00;;;5.18;;
18501;SDS011;68437;52.236;5.710;2023-07-02T14:31:30;12.57;;;4.97;;
18501;SDS011;68437;52.236;5.710;2023-07-02T14:33:58;10.55;;;4.75;;
18501;SDS011;68437;52.236;5.710;2023-07-02T14:36:25;14.82;;;4.70;;
18501;SDS011;68437;52.236;5.710;2023-07-02T14:38:52;16.15;;;5.13;;
18501;SDS011;68437;52.236;5.710;2023-07-02T14:41:19;12.48;;;4.82;;